sensor_id;sensor_type;location;lat;lon;timestamp;pressure;altitude;pressure_sealevel;temperature;humidity
5872;BME280;2962;51.312;7.378;2023-01-05T00:01:10;97408.78;;;8.88;100.00
5872;BME280;2962;51.312;7.378;2023-01-05T00:03:36;97380.56;;;8.92;100.00
5872;BME280;2962;51.312;7.378;2023-01-05T00:06:04;97415.81;;;8.89;100.00
5872;BME280;2962;51.312;7.378;2023-01-05T00:08:30;97390.53;;;8.85;100.00
5872;BME280;2962;51.312;7.378;2023-01-05T00:10:55;97400.59;;;8.84;100.00
5872;BME280;2962;51.312;7.378;2023-01-05T00:13:39;97418.25;;;8.94;100.00
5872;BME280;2962;51.312;7.378;2023-01-05T00:16:23;97413.31;;;8.99;100.00
5872;BME280;2962;51.312;7.378;2023-01-05T00:19:09;97423.69;;;8.94;100.00
5872;BME280;2962;51.312;7.378;2023-01-05T00:21:53;97417.53;;;8.97;100.00
5872;BME280;2962;51.312;7.378;2023-01-05T00:24:37;97417.53;;;8.97;100.00
5872;BME280;2962;51.312;7.378;2023-01-05T00:27:02;97402.38;;;8.96;100.00
5872;BME280;2962;51.312;7.378;2023-01-05T00:29:28;97414.09;;;9.00;100.00
5872;BME280;2962;51.312;7.378;2023-01-05T00:31:53;97416.81;;;9.00;100.00
5872;BME280;2962;51.312;7.378;2023-01-05T00:34:18;97402.72;;;8.94;100.00
5872;BME280;2962;51.312;7.378;2023-01-05T00:36:44;97418.25;;;8.94;100.00
5872;BME280;2962;51.312;7.378;2023-01-05T00:39:09;97423.69;;;8.94;100.00
5872;BME280;2962;51.312;7.378;2023-01-05T00:41:34;97408.09;;;8.91;100.00
5872;BME280;2962;51.312;7.378;2023-01-05T00:43:59;97424.75;;;8.89;100.00
5872;BME280;2962;51.312;7.378;2023-01-05T00:46:25;97442.69;;;8.94;100.00
5872;BME280;2962;51.312;7.378;2023-01-05T00:48:50;97426.84;;;8.96;100.00
5872;BME280;2962;51.312;7.378;2023-01-05T00:51:15;97409.38;;;8.97;100.00
5872;BME280;2962;51.312;7.378;2023-01-05T00:53:41;97420.66;;;8.99;100.00
5872;BME280;2962;51.312;7.378;2023-01-05T00:56:06;97407.38;;;8.94;100.00
5872;BME280;2962;51.312;7.378;2023-01-05T00:58:31;97425.75;;;9.00;100.00
5872;BME280;2962;51.312;7.378;2023-01-05T01:00:57;97413.53;;;8.91;100.00
5872;BME280;2962;51.312;7.378;2023-01-05T01:03:22;97417.88;;;8.95;100.00
5872;BME280;2962;51.312;7.378;2023-01-05T01:05:56;97423.31;;;8.95;100.00
5872;BME280;2962;51.312;7.378;2023-01-05T01:08:21;97422.19;;;8.96;100.00
5872;BME280;2962;51.312;7.378;2023-01-05T01:10:47;97417.53;;;8.97;100.00
5872;BME280;2962;51.312;7.378;2023-01-05T01:13:12;97438.91;;;8.98;100.00
5872;BME280;2962;51.312;7.378;2023-01-05T01:15:37;97434.56;;;8.94;100.00
5872;BME280;2962;51.312;7.378;2023-01-05T01:18:02;97419.41;;;8.73;100.00
5872;BME280;2962;51.312;7.378;2023-01-05T01:20:28;97426.03;;;8.76;100.00
5872;BME280;2962;51.312;7.378;2023-01-05T01:22:53;97428.25;;;8.70;100.00
5872;BME280;2962;51.312;7.378;2023-01-05T01:25:18;97426.31;;;8.71;100.00
5872;BME280;2962;51.312;7.378;2023-01-05T01:27:43;97412.50;;;8.60;100.00
5872;BME280;2962;51.312;7.378;2023-01-05T01:30:09;97446.66;;;8.42;100.00
5872;BME280;2962;51.312;7.378;2023-01-05T01:32:35;97412.47;;;8.41;100.00
5872;BME280;2962;51.312;7.378;2023-01-05T01:35:00;97441.13;;;8.38;100.00
5872;BME280;2962;51.312;7.378;2023-01-05T01:37:25;97435.84;;;8.29;100.00
5872;BME280;2962;51.312;7.378;2023-01-05T01:39:51;97427.28;;;8.27;100.00
5872;BME280;2962;51.312;7.378;2023-01-05T01:42:16;97436.22;;;8.28;100.00
5872;BME280;2962;51.312;7.378;2023-01-05T01:44:51;97457.84;;;8.24;100.00
5872;BME280;2962;51.312;7.378;2023-01-05T01:49:49;97454.97;;;8.17;100.00
5872;BME280;2962;51.312;7.378;2023-01-05T01:52:15;97456.09;;;8.16;100.00
5872;BME280;2962;51.312;7.378;2023-01-05T01:54:41;97456.97;;;8.20;100.00
5872;BME280;2962;51.312;7.378;2023-01-05T01:57:09;97458.38;;;8.14;100.00
5872;BME280;2962;51.312;7.378;2023-01-05T01:59:35;97451.28;;;8.10;100.00
5872;BME280;2962;51.312;7.378;2023-01-05T02:02:01;97442.28;;;8.05;100.00
5872;BME280;2962;51.312;7.378;2023-01-05T02:04:28;97464.75;;;8.22;100.00
5872;BME280;2962;51.312;7.378;2023-01-05T02:06:55;97448.50;;;8.06;100.00
5872;BME280;2962;51.312;7.378;2023-01-05T02:09:20;97462.50;;;8.24;100.00
5872;BME280;2962;51.312;7.378;2023-01-05T02:12:00;97460.19;;;8.26;100.00
5872;BME280;2962;51.312;7.378;2023-01-05T02:14:39;97458.13;;;8.19;100.00
5872;BME280;2962;51.312;7.378;2023-01-05T02:17:23;97460.84;;;8.19;100.00
5872;BME280;2962;51.312;7.378;2023-01-05T02:20:30;97435.72;;;8.06;100.00
5872;BME280;2962;51.312;7.378;2023-01-05T02:29:11;97477.28;;;8.26;100.00
5872;BME280;2962;51.312;7.378;2023-01-05T02:31:52;97445.75;;;8.22;100.00
5872;BME280;2962;51.312;7.378;2023-01-05T02:34:51;97470.44;;;8.32;100.00
5872;BME280;2962;51.312;7.378;2023-01-05T02:37:31;97470.81;;;8.31;100.00
5872;BME280;2962;51.312;7.378;2023-01-05T02:40:15;97467.13;;;8.23;100.00
5872;BME280;2962;51.312;7.378;2023-01-05T02:42:45;97476.56;;;8.29;100.00
5872;BME280;2962;51.312;7.378;2023-01-05T02:45:14;97464.66;;;8.18;100.00
5872;BME280;2962;51.312;7.378;2023-01-05T02:47:41;97468.25;;;8.22;100.00
5872;BME280;2962;51.312;7.378;2023-01-05T02:50:25;97484.72;;;8.29;100.00
5872;BME280;2962;51.312;7.378;2023-01-05T02:53:13;97486.31;;;8.30;100.00
5872;BME280;2962;51.312;7.378;2023-01-05T02:55:45;97487.25;;;8.22;100.00
5872;BME280;2962;51.312;7.378;2023-01-05T02:58:21;97482.28;;;8.24;100.00
5872;BME280;2962;51.312;7.378;2023-01-05T03:01:01;97471.78;;;8.23;100.00
5872;BME280;2962;51.312;7.378;2023-01-05T03:03:40;97487.00;;;8.27;100.00
5872;BME280;2962;51.312;7.378;2023-01-05T03:06:11;97482.28;;;8.24;100.00
5872;BME280;2962;51.312;7.378;2023-01-05T03:08:41;97483.75;;;8.22;100.00
5872;BME280;2962;51.312;7.378;2023-01-05T03:11:10;97479.66;;;8.28;100.00
5872;BME280;2962;51.312;7.378;2023-01-05T03:14:21;97488.56;;;8.28;100.00
5872;BME280;2962;51.312;7.378;2023-01-05T03:16:50;97485.78;;;8.25;100.00
5872;BME280;2962;51.312;7.378;2023-01-05T03:19:18;97473.09;;;8.13;100.00
5872;BME280;2962;51.312;7.378;2023-01-05T03:22:06;97484.13;;;8.20;100.00
5872;BME280;2962;51.312;7.378;2023-01-05T03:24:50;97477.91;;;8.20;100.00
5872;BME280;2962;51.312;7.378;2023-01-05T03:27:35;97482.78;;;8.30;100.00
5872;BME280;2962;51.312;7.378;2023-01-05T03:30:21;97463.00;;;8.14;100.00
5872;BME280;2962;51.312;7.378;2023-01-05T03:33:24;97487.44;;;8.29;100.00
5872;BME280;2962;51.312;7.378;2023-01-05T03:36:15;97496.22;;;8.23;100.00
5872;BME280;2962;51.312;7.378;2023-01-05T03:38:44;97509.88;;;8.26;100.00
5872;BME280;2962;51.312;7.378;2023-01-05T03:41:11;97491.28;;;8.28;100.00
5872;BME280;2962;51.312;7.378;2023-01-05T03:43:40;97514.16;;;8.27;100.00
5872;BME280;2962;51.312;7.378;2023-01-05T03:46:13;97484.38;;;8.31;100.00
5872;BME280;2962;51.312;7.378;2023-01-05T03:48:39;97494.44;;;8.30;100.00
5872;BME280;2962;51.312;7.378;2023-01-05T03:51:05;97492.16;;;8.32;100.00
5872;BME280;2962;51.312;7.378;2023-01-05T03:53:31;97491.13;;;8.37;100.00
5872;BME280;2962;51.312;7.378;2023-01-05T03:55:56;97498.47;;;8.37;100.00
5872;BME280;2962;51.312;7.378;2023-01-05T03:58:21;97497.78;;;8.40;100.00
5872;BME280;2962;51.312;7.378;2023-01-05T04:00:46;97500.56;;;8.27;100.00
5872;BME280;2962;51.312;7.378;2023-01-05T04:03:12;97502.84;;;8.25;100.00
5872;BME280;2962;51.312;7.378;2023-01-05T04:05:37;97488.16;;;8.26;100.00
5872;BME280;2962;51.312;7.378;2023-01-05T04:08:02;97490.91;;;8.30;100.00
5872;BME280;2962;51.312;7.378;2023-01-05T04:10:28;97494.38;;;8.27;100.00
5872;BME280;2962;51.312;7.378;2023-01-05T04:12:53;97494.38;;;8.27;100.00
5872;BME280;2962;51.312;7.378;2023-01-05T04:15:18;97456.63;;;8.06;100.00
5872;BME280;2962;51.312;7.378;2023-01-05T04:17:44;97491.72;;;8.15;100.00
5872;BME280;2962;51.312;7.378;2023-01-05T04:20:10;97498.75;;;8.00;100.00
5872;BME280;2962;51.312;7.378;2023-01-05T04:22:35;97502.41;;;7.92;100.00
5872;BME280;2962;51.312;7.378;2023-01-05T04:25:00;97501.97;;;7.90;100.00
5872;BME280;2962;51.312;7.378;2023-01-05T04:27:26;97527.84;;;7.87;100.00
5872;BME280;2962;51.312;7.378;2023-01-05T04:29:51;97504.69;;;7.90;100.00
5872;BME280;2962;51.312;7.378;2023-01-05T04:32:16;97520.00;;;7.98;100.00
5872;BME280;2962;51.312;7.378;2023-01-05T04:34:41;97512.91;;;7.93;100.00
5872;BME280;2962;51.312;7.378;2023-01-05T04:37:07;97514.16;;;7.96;100.00
5872;BME280;2962;51.312;7.378;2023-01-05T04:39:32;97501.78;;;7.98;100.00
5872;BME280;2962;51.312;7.378;2023-01-05T04:41:57;97515.16;;;7.91;100.00
5872;BME280;2962;51.312;7.378;2023-01-05T04:44:23;97529.38;;;8.00;100.00
5872;BME280;2962;51.312;7.378;2023-01-05T04:46:48;97496.97;;;7.92;100.00
5872;BME280;2962;51.312;7.378;2023-01-05T04:49:13;97514.56;;;7.98;100.00
5872;BME280;2962;51.312;7.378;2023-01-05T04:51:38;97512.56;;;7.95;100.00
5872;BME280;2962;51.312;7.378;2023-01-05T04:54:04;97505.03;;;7.88;100.00
5872;BME280;2962;51.312;7.378;2023-01-05T04:56:29;97506.16;;;7.87;100.00
5872;BME280;2962;51.312;7.378;2023-01-05T04:58:54;97516.81;;;7.80;100.00
5872;BME280;2962;51.312;7.378;2023-01-05T05:01:19;97542.72;;;7.77;100.00
5872;BME280;2962;51.312;7.378;2023-01-05T05:03:45;97512.50;;;7.63;100.00
5872;BME280;2962;51.312;7.378;2023-01-05T05:06:10;97549.00;;;7.66;100.00
5872;BME280;2962;51.312;7.378;2023-01-05T05:08:35;97521.34;;;7.60;100.00
5872;BME280;2962;51.312;7.378;2023-01-05T05:11:01;97546.88;;;7.59;100.00
5872;BME280;2962;51.312;7.378;2023-01-05T05:13:26;97529.84;;;7.58;100.00
5872;BME280;2962;51.312;7.378;2023-01-05T05:15:51;97554.34;;;7.62;100.00
5872;BME280;2962;51.312;7.378;2023-01-05T05:18:17;97548.97;;;7.50;100.00
5872;BME280;2962;51.312;7.378;2023-01-05T05:20:44;97549.94;;;7.57;100.00
5872;BME280;2962;51.312;7.378;2023-01-05T05:23:10;97546.78;;;7.55;100.00
5872;BME280;2962;51.312;7.378;2023-01-05T05:25:35;97547.38;;;7.49;100.00
5872;BME280;2962;51.312;7.378;2023-01-05T05:28:00;97572.22;;;7.51;100.00
5872;BME280;2962;51.312;7.378;2023-01-05T05:30:25;97518.19;;;7.30;100.00
5872;BME280;2962;51.312;7.378;2023-01-05T05:32:51;97587.59;;;7.47;100.00
5872;BME280;2962;51.312;7.378;2023-01-05T05:35:16;97565.13;;;7.46;100.00
5872;BME280;2962;51.312;7.378;2023-01-05T05:37:41;97584.63;;;7.52;100.00
5872;BME280;2962;51.312;7.378;2023-01-05T05:40:07;97573.47;;;7.53;100.00
5872;BME280;2962;51.312;7.378;2023-01-05T05:42:33;97580.78;;;7.53;100.00
5872;BME280;2962;51.312;7.378;2023-01-05T05:44:58;97587.03;;;7.53;100.00
5872;BME280;2962;51.312;7.378;2023-01-05T05:47:23;97561.97;;;7.44;100.00
5872;BME280;2962;51.312;7.378;2023-01-05T05:49:49;97576.25;;;7.57;100.00
5872;BME280;2962;51.312;7.378;2023-01-05T05:52:14;97589.47;;;7.58;100.00
5872;BME280;2962;51.312;7.378;2023-01-05T05:54:39;97578.06;;;7.53;100.00
5872;BME280;2962;51.312;7.378;2023-01-05T05:57:04;97578.53;;;7.55;100.00
5872;BME280;2962;51.312;7.378;2023-01-05T05:59:30;97600.91;;;7.52;100.00
5872;BME280;2962;51.312;7.378;2023-01-05T06:01:55;97589.16;;;7.48;100.00
5872;BME280;2962;51.312;7.378;2023-01-05T06:04:20;97587.41;;;7.40;100.00
5872;BME280;2962;51.312;7.378;2023-01-05T06:06:45;97586.16;;;7.37;100.00
5872;BME280;2962;51.312;7.378;2023-01-05T06:09:11;97588.19;;;7.40;100.00
5872;BME280;2962;51.312;7.378;2023-01-05T06:11:36;97593.25;;;7.42;100.00
5872;BME280;2962;51.312;7.378;2023-01-05T06:14:01;97610.19;;;7.51;100.00
5872;BME280;2962;51.312;7.378;2023-01-05T06:16:27;97599.44;;;7.54;100.00
5872;BME280;2962;51.312;7.378;2023-01-05T06:18:53;97606.31;;;7.52;100.00
5872;BME280;2962;51.312;7.378;2023-01-05T06:21:18;97604.66;;;7.47;100.00
5872;BME280;2962;51.312;7.378;2023-01-05T06:23:45;97615.94;;;7.49;100.00
5872;BME280;2962;51.312;7.378;2023-01-05T06:26:10;97606.78;;;7.42;100.00
5872;BME280;2962;51.312;7.378;2023-01-05T06:28:36;97613.31;;;7.53;100.00
5872;BME280;2962;51.312;7.378;2023-01-05T06:31:01;97603.75;;;7.43;100.00
5872;BME280;2962;51.312;7.378;2023-01-05T06:33:26;97622.84;;;7.47;100.00
5872;BME280;2962;51.312;7.378;2023-01-05T06:35:51;97623.88;;;7.42;100.00
5872;BME280;2962;51.312;7.378;2023-01-05T06:38:17;97606.13;;;7.45;100.00
5872;BME280;2962;51.312;7.378;2023-01-05T06:40:45;97610.19;;;7.51;100.00
5872;BME280;2962;51.312;7.378;2023-01-05T06:43:11;97617.97;;;7.52;100.00
5872;BME280;2962;51.312;7.378;2023-01-05T06:45:36;97613.78;;;7.55;100.00
5872;BME280;2962;51.312;7.378;2023-01-05T06:48:01;97635.72;;;7.50;100.00
5872;BME280;2962;51.312;7.378;2023-01-05T06:50:28;97631.31;;;7.45;100.00
5872;BME280;2962;51.312;7.378;2023-01-05T06:52:53;97618.09;;;7.44;100.00
5872;BME280;2962;51.312;7.378;2023-01-05T06:55:18;97630.50;;;7.45;100.00
5872;BME280;2962;51.312;7.378;2023-01-05T06:57:45;97648.00;;;7.59;100.00
5872;BME280;2962;51.312;7.378;2023-01-05T07:00:11;97629.78;;;7.60;100.00
5872;BME280;2962;51.312;7.378;2023-01-05T07:02:36;97638.63;;;7.57;100.00
5872;BME280;2962;51.312;7.378;2023-01-05T07:05:02;97628.81;;;7.52;100.00
5872;BME280;2962;51.312;7.378;2023-01-05T07:07:28;97634.19;;;7.65;100.00
5872;BME280;2962;51.312;7.378;2023-01-05T07:09:53;97641.56;;;7.52;100.00
5872;BME280;2962;51.312;7.378;2023-01-05T07:12:19;97646.06;;;7.60;100.00
5872;BME280;2962;51.312;7.378;2023-01-05T07:14:44;97649.59;;;7.48;100.00
5872;BME280;2962;51.312;7.378;2023-01-05T07:17:09;97646.00;;;7.44;100.00
5872;BME280;2962;51.312;7.378;2023-01-05T07:19:36;97649.50;;;7.45;100.00
5872;BME280;2962;51.312;7.378;2023-01-05T07:22:02;97668.34;;;7.53;100.00
5872;BME280;2962;51.312;7.378;2023-01-05T07:24:28;97652.78;;;7.50;100.00
5872;BME280;2962;51.312;7.378;2023-01-05T07:26:53;97665.97;;;7.52;100.00
5872;BME280;2962;51.312;7.378;2023-01-05T07:29:19;97657.59;;;7.57;100.00
5872;BME280;2962;51.312;7.378;2023-01-05T07:31:44;97671.41;;;7.52;100.00
5872;BME280;2962;51.312;7.378;2023-01-05T07:34:11;97658.28;;;7.54;100.00
5872;BME280;2962;51.312;7.378;2023-01-05T07:36:36;97672.63;;;7.54;100.00
5872;BME280;2962;51.312;7.378;2023-01-05T07:39:02;97678.38;;;7.53;100.00
5872;BME280;2962;51.312;7.378;2023-01-05T07:41:27;97669.81;;;7.51;100.00
5872;BME280;2962;51.312;7.378;2023-01-05T07:43:52;97669.72;;;7.47;100.00
5872;BME280;2962;51.312;7.378;2023-01-05T07:46:18;97683.84;;;7.41;100.00
5872;BME280;2962;51.312;7.378;2023-01-05T07:48:43;97674.56;;;7.42;100.00
5872;BME280;2962;51.312;7.378;2023-01-05T07:51:09;97687.78;;;7.55;100.00
5872;BME280;2962;51.312;7.378;2023-01-05T07:53:36;97699.88;;;7.58;100.00
5872;BME280;2962;51.312;7.378;2023-01-05T07:56:04;97694.97;;;7.64;100.00
5872;BME280;2962;51.312;7.378;2023-01-05T07:58:31;97696.69;;;7.56;100.00
5872;BME280;2962;51.312;7.378;2023-01-05T08:00:56;97698.25;;;7.57;100.00
5872;BME280;2962;51.312;7.378;2023-01-05T08:03:21;97691.63;;;7.54;100.00
5872;BME280;2962;51.312;7.378;2023-01-05T08:05:47;97702.34;;;7.51;100.00
5872;BME280;2962;51.312;7.378;2023-01-05T08:08:13;97713.19;;;7.51;100.00
5872;BME280;2962;51.312;7.378;2023-01-05T08:10:40;97704.72;;;7.52;100.00
5872;BME280;2962;51.312;7.378;2023-01-05T08:13:07;97712.63;;;7.57;100.00
5872;BME280;2962;51.312;7.378;2023-01-05T08:15:52;97730.47;;;7.58;100.00
5872;BME280;2962;51.312;7.378;2023-01-05T08:18:18;97728.31;;;7.64;100.00
5872;BME280;2962;51.312;7.378;2023-01-05T08:20:54;97747.31;;;7.52;100.00
5872;BME280;2962;51.312;7.378;2023-01-05T08:23:21;97731.81;;;7.52;100.00
5872;BME280;2962;51.312;7.378;2023-01-05T08:25:47;97724.72;;;7.48;100.00
5872;BME280;2962;51.312;7.378;2023-01-05T08:28:12;97716.81;;;7.55;100.00
5872;BME280;2962;51.312;7.378;2023-01-05T08:30:37;97730.25;;;7.51;100.00
5872;BME280;2962;51.312;7.378;2023-01-05T08:33:03;97739.16;;;7.52;100.00
5872;BME280;2962;51.312;7.378;2023-01-05T08:35:29;97745.06;;;7.54;100.00
5872;BME280;2962;51.312;7.378;2023-01-05T08:37:54;97749.88;;;7.61;100.00
5872;BME280;2962;51.312;7.378;2023-01-05T08:40:19;97737.81;;;7.58;100.00
5872;BME280;2962;51.312;7.378;2023-01-05T08:42:45;97750.22;;;7.71;100.00
5872;BME280;2962;51.312;7.378;2023-01-05T08:45:14;97749.66;;;7.78;100.00
5872;BME280;2962;51.312;7.378;2023-01-05T08:47:40;97755.63;;;7.71;100.00
5872;BME280;2962;51.312;7.378;2023-01-05T08:50:06;97742.31;;;7.66;100.00
5872;BME280;2962;51.312;7.378;2023-01-05T08:52:34;97754.75;;;7.67;100.00
5872;BME280;2962;51.312;7.378;2023-01-05T08:54:59;97771.69;;;7.64;100.00
5872;BME280;2962;51.312;7.378;2023-01-05T08:57:24;97757.91;;;7.69;100.00
5872;BME280;2962;51.312;7.378;2023-01-05T08:59:50;97787.75;;;7.69;100.00
5872;BME280;2962;51.312;7.378;2023-01-05T09:02:15;97775.44;;;7.59;100.00
5872;BME280;2962;51.312;7.378;2023-01-05T09:04:40;97752.84;;;7.55;100.00
5872;BME280;2962;51.312;7.378;2023-01-05T09:07:05;97779.81;;;7.64;100.00
5872;BME280;2962;51.312;7.378;2023-01-05T09:09:31;97775.44;;;7.59;100.00
5872;BME280;2962;51.312;7.378;2023-01-05T09:11:56;97775.41;;;7.72;100.00
5872;BME280;2962;51.312;7.378;2023-01-05T09:14:21;97782.09;;;7.74;100.00
5872;BME280;2962;51.312;7.378;2023-01-05T09:16:46;97786.75;;;7.62;100.00
5872;BME280;2962;51.312;7.378;2023-01-05T09:19:12;97773.84;;;7.58;100.00
5872;BME280;2962;51.312;7.378;2023-01-05T09:21:37;97792.59;;;7.64;100.00
5872;BME280;2962;51.312;7.378;2023-01-05T09:24:07;97788.75;;;7.65;100.00
5872;BME280;2962;51.312;7.378;2023-01-05T09:26:32;97786.38;;;7.75;100.00
5872;BME280;2962;51.312;7.378;2023-01-05T09:28:58;97796.91;;;7.77;100.00
5872;BME280;2962;51.312;7.378;2023-01-05T09:31:24;97798.34;;;7.74;100.00
5872;BME280;2962;51.312;7.378;2023-01-05T09:33:49;97795.19;;;7.72;100.00
5872;BME280;2962;51.312;7.378;2023-01-05T09:36:16;97792.38;;;7.56;100.00
5872;BME280;2962;51.312;7.378;2023-01-05T09:38:42;97804.94;;;7.73;100.00
5872;BME280;2962;51.312;7.378;2023-01-05T09:41:21;97812.94;;;7.70;100.00
5872;BME280;2962;51.312;7.378;2023-01-05T09:43:54;97818.13;;;7.75;100.00
5872;BME280;2962;51.312;7.378;2023-01-05T09:46:25;97819.81;;;7.79;100.00
5872;BME280;2962;51.312;7.378;2023-01-05T09:48:56;97830.66;;;7.79;100.00
5872;BME280;2962;51.312;7.378;2023-01-05T09:51:23;97817.22;;;7.83;100.00
5872;BME280;2962;51.312;7.378;2023-01-05T09:53:49;97824.91;;;7.81;100.00
5872;BME280;2962;51.312;7.378;2023-01-05T09:56:23;97829.44;;;7.89;100.00
5872;BME280;2962;51.312;7.378;2023-01-05T09:58:51;97827.94;;;7.92;100.00
5872;BME280;2962;51.312;7.378;2023-01-05T10:01:21;97835.06;;;7.96;100.00
5872;BME280;2962;51.312;7.378;2023-01-05T10:03:54;97828.66;;;7.89;100.00
5872;BME280;2962;51.312;7.378;2023-01-05T10:06:26;97843.44;;;7.91;100.00
5872;BME280;2962;51.312;7.378;2023-01-05T10:08:52;97833.03;;;7.93;100.00
5872;BME280;2962;51.312;7.378;2023-01-05T10:11:21;97831.25;;;7.85;100.00
5872;BME280;2962;51.312;7.378;2023-01-05T10:14:11;97836.31;;;7.87;100.00
5872;BME280;2962;51.312;7.378;2023-01-05T10:16:40;97840.41;;;7.93;100.00
5872;BME280;2962;51.312;7.378;2023-01-05T10:19:16;97843.00;;;7.77;100.00
5872;BME280;2962;51.312;7.378;2023-01-05T10:21:51;97844.69;;;7.81;100.00
5872;BME280;2962;51.312;7.378;2023-01-05T10:27:18;97844.69;;;7.81;100.00
5872;BME280;2962;51.312;7.378;2023-01-05T10:29:48;97857.59;;;7.85;100.00
5872;BME280;2962;51.312;7.378;2023-01-05T10:35:42;97848.19;;;7.94;100.00
5872;BME280;2962;51.312;7.378;2023-01-05T10:38:19;97853.50;;;7.91;100.00
5872;BME280;2962;51.312;7.378;2023-01-05T10:41:15;97855.41;;;7.90;100.00
5872;BME280;2962;51.312;7.378;2023-01-05T10:46:29;97853.72;;;7.86;100.00
5872;BME280;2962;51.312;7.378;2023-01-05T10:48:55;97833.38;;;7.79;100.00
5872;BME280;2962;51.312;7.378;2023-01-05T10:51:20;97852.28;;;7.88;100.00
5872;BME280;2962;51.312;7.378;2023-01-05T10:53:46;97860.97;;;7.94;100.00
5872;BME280;2962;51.312;7.378;2023-01-05T10:56:22;97846.03;;;7.88;100.00
5872;BME280;2962;51.312;7.378;2023-01-05T10:58:47;97840.41;;;7.80;100.00
5872;BME280;2962;51.312;7.378;2023-01-05T11:01:29;97834.38;;;7.87;100.00
5872;BME280;2962;51.312;7.378;2023-01-05T11:04:06;97862.66;;;7.98;100.00
5872;BME280;2962;51.312;7.378;2023-01-05T11:06:34;97869.44;;;8.04;100.00
5872;BME280;2962;51.312;7.378;2023-01-05T11:09:06;97866.50;;;7.97;100.00
5872;BME280;2962;51.312;7.378;2023-01-05T11:11:40;97878.03;;;7.94;100.00
5872;BME280;2962;51.312;7.378;2023-01-05T11:14:13;97871.38;;;8.04;100.00
5872;BME280;2962;51.312;7.378;2023-01-05T11:16:46;97863.00;;;7.97;100.00
5872;BME280;2962;51.312;7.378;2023-01-05T11:19:14;97858.47;;;8.01;100.00
5872;BME280;2962;51.312;7.378;2023-01-05T11:21:42;97869.53;;;8.20;100.00
5872;BME280;2962;51.312;7.378;2023-01-05T11:26:55;97870.75;;;8.35;100.00
5872;BME280;2962;51.312;7.378;2023-01-05T11:29:21;97860.69;;;8.23;100.00
5872;BME280;2962;51.312;7.378;2023-01-05T11:34:47;97868.38;;;8.46;100.00
5872;BME280;2962;51.312;7.378;2023-01-05T11:37:23;97873.56;;;8.51;100.00
5872;BME280;2962;51.312;7.378;2023-01-05T11:40:00;97868.59;;;8.41;100.00
5872;BME280;2962;51.312;7.378;2023-01-05T11:42:32;97850.50;;;8.32;100.00
5872;BME280;2962;51.312;7.378;2023-01-05T11:45:02;97852.25;;;8.65;100.00
5872;BME280;2962;51.312;7.378;2023-01-05T11:47:58;97876.03;;;8.56;100.00
5872;BME280;2962;51.312;7.378;2023-01-05T11:50:29;97862.91;;;8.58;100.00
5872;BME280;2962;51.312;7.378;2023-01-05T11:52:57;97868.13;;;8.51;100.00
5872;BME280;2962;51.312;7.378;2023-01-05T11:55:26;97866.88;;;8.48;100.00
5872;BME280;2962;51.312;7.378;2023-01-05T12:06:45;97862.91;;;8.58;100.00
5872;BME280;2962;51.312;7.378;2023-01-05T12:09:30;97855.31;;;8.92;100.00
5872;BME280;2962;51.312;7.378;2023-01-05T12:11:59;97850.19;;;8.90;100.00
5872;BME280;2962;51.312;7.378;2023-01-05T12:14:57;97857.72;;;8.81;100.00
5872;BME280;2962;51.312;7.378;2023-01-05T12:18:03;97851.13;;;9.10;100.00
5872;BME280;2962;51.312;7.378;2023-01-05T12:20:45;97852.72;;;9.11;100.00
5872;BME280;2962;51.312;7.378;2023-01-05T12:23:26;97851.84;;;8.79;100.00
5872;BME280;2962;51.312;7.378;2023-01-05T12:28:44;97856.63;;;8.98;100.00
5872;BME280;2962;51.312;7.378;2023-01-05T12:31:36;97876.66;;;8.77;100.00
5872;BME280;2962;51.312;7.378;2023-01-05T12:34:17;97871.84;;;8.87;100.00
5872;BME280;2962;51.312;7.378;2023-01-05T12:39:39;97875.63;;;8.98;100.00
5872;BME280;2962;51.312;7.378;2023-01-05T12:45:26;97874.25;;;9.04;100.00
5872;BME280;2962;51.312;7.378;2023-01-05T12:48:07;97868.53;;;8.93;100.00
5872;BME280;2962;51.312;7.378;2023-01-05T12:53:27;97871.28;;;9.09;100.00
5872;BME280;2962;51.312;7.378;2023-01-05T12:55:58;97869.53;;;9.17;100.00
5872;BME280;2962;51.312;7.378;2023-01-05T12:58:30;97886.88;;;8.96;100.00
5872;BME280;2962;51.312;7.378;2023-01-05T13:00:58;97872.41;;;8.92;100.00
5872;BME280;2962;51.312;7.378;2023-01-05T13:03:29;97879.50;;;8.97;100.00
5872;BME280;2962;51.312;7.378;2023-01-05T13:06:04;97881.09;;;8.70;100.00
5872;BME280;2962;51.312;7.378;2023-01-05T13:08:47;97869.63;;;8.76;100.00
5872;BME280;2962;51.312;7.378;2023-01-05T13:11:34;97868.22;;;8.83;100.00
5872;BME280;2962;51.312;7.378;2023-01-05T13:14:05;97867.00;;;8.80;100.00
5872;BME280;2962;51.312;7.378;2023-01-05T13:17:05;97874.91;;;8.85;100.00
5872;BME280;2962;51.312;7.378;2023-01-05T13:19:36;97871.06;;;8.86;100.00
5872;BME280;2962;51.312;7.378;2023-01-05T13:22:10;97872.97;;;8.86;100.00
5872;BME280;2962;51.312;7.378;2023-01-05T13:24:45;97853.69;;;8.91;100.00
5872;BME280;2962;51.312;7.378;2023-01-05T13:27:15;97885.22;;;9.08;100.00
5872;BME280;2962;51.312;7.378;2023-01-05T13:29:45;97876.28;;;9.07;100.00
5872;BME280;2962;51.312;7.378;2023-01-05T13:32:19;97886.25;;;9.03;100.00
5872;BME280;2962;51.312;7.378;2023-01-05T13:34:51;97880.19;;;8.94;100.00
5872;BME280;2962;51.312;7.378;2023-01-05T13:37:55;97886.59;;;9.01;100.00
5872;BME280;2962;51.312;7.378;2023-01-05T13:40:48;97883.72;;;9.10;100.00
5872;BME280;2962;51.312;7.378;2023-01-05T13:43:43;97889.88;;;9.07;100.00
5872;BME280;2962;51.312;7.378;2023-01-05T13:46:27;97892.84;;;9.02;100.00
5872;BME280;2962;51.312;7.378;2023-01-05T13:49:17;97884.88;;;9.09;100.00
5872;BME280;2962;51.312;7.378;2023-01-05T13:51:54;97881.22;;;9.17;100.00
5872;BME280;2962;51.312;7.378;2023-01-05T13:56:46;97883.34;;;9.24;100.00
5872;BME280;2962;51.312;7.378;2023-01-05T13:59:22;97888.22;;;9.18;100.00
5872;BME280;2962;51.312;7.378;2023-01-05T14:01:49;97899.34;;;9.13;100.00
5872;BME280;2962;51.312;7.378;2023-01-05T14:04:20;97896.63;;;9.13;100.00
5872;BME280;2962;51.312;7.378;2023-01-05T14:06:48;97889.44;;;9.05;100.00
5872;BME280;2962;51.312;7.378;2023-01-05T14:09:26;97891.53;;;8.96;100.00
5872;BME280;2962;51.312;7.378;2023-01-05T14:22:58;97902.63;;;8.91;100.00
5872;BME280;2962;51.312;7.378;2023-01-05T14:33:49;97911.63;;;9.07;100.00
5872;BME280;2962;51.312;7.378;2023-01-05T14:36:36;97912.34;;;9.20;100.00
5872;BME280;2962;51.312;7.378;2023-01-05T14:39:05;97909.63;;;9.20;100.00
5872;BME280;2962;51.312;7.378;2023-01-05T14:41:32;97909.28;;;9.21;100.00
5872;BME280;2962;51.312;7.378;2023-01-05T14:44:01;97907.19;;;9.15;100.00